Time;durP1;ratioP1;P1;durP2;ratioP2;P2;SDS_P1;SDS_P2;PMS_P1;PMS_P2;Temp;Humidity;BMP_temperature;BMP_pressure;BME280_temperature;BME280_humidity;BME280_pressure;Samples;Min_cycle;Max_cycle;Signal;HPM_P1;HPM_P2
2023/12/01 00:01:36;;;;;;;27.83;21.27;;;;;;;3.52;78.06;94555.22;4998200;28;20247;-71
2023/12/01 00:04:01;;;;;;;29.80;22.73;;;;;;;3.60;77.68;94540.78;5001587;28;20272;-72
2023/12/01 00:06:26;;;;;;;32.37;23.00;;;;;;;3.28;77.93;94541.53;4996653;28;20270;-72
2023/12/01 00:08:52;;;;;;;35.83;23.00;;;;;;;3.29;79.02;94523.25;4996470;28;20315;-72
2023/12/01 00:11:17;;;;;;;30.47;22.30;;;;;;;3.40;77.99;94557.97;5003002;28;20217;-72
2023/12/01 00:13:43;;;;;;;30.57;22.83;;;;;;;3.30;78.31;94531.84;5002422;28;20218;-73
2023/12/01 00:16:09;;;;;;;26.73;20.67;;;;;;;3.49;78.10;94534.66;5001277;28;20216;-72
2023/12/01 00:18:34;;;;;;;34.07;23.60;;;;;;;3.51;78.16;94555.34;4997831;28;20230;-72
2023/12/01 00:21:00;;;;;;;28.53;22.20;;;;;;;3.50;77.78;94549.31;4996031;28;20696;-72
2023/12/01 00:23:25;;;;;;;28.63;22.73;;;;;;;3.29;78.61;94512.03;5001595;28;20198;-72
2023/12/01 00:25:51;;;;;;;29.90;22.33;;;;;;;3.38;78.32;94554.66;5001143;28;20216;-71
2023/12/01 00:28:16;;;;;;;28.67;21.93;;;;;;;3.22;78.90;94535.03;4999155;28;20230;-71
2023/12/01 00:30:42;;;;;;;28.90;22.47;;;;;;;3.40;78.74;94496.41;5003532;28;20253;-71
2023/12/01 00:33:07;;;;;;;28.27;20.97;;;;;;;3.57;77.63;94538.44;5000452;28;20242;-73
2023/12/01 00:35:32;;;;;;;28.07;22.10;;;;;;;3.35;78.04;94542.72;5001518;28;20190;-72
2023/12/01 00:37:58;;;;;;;29.13;22.70;;;;;;;2.94;80.16;94515.59;4999112;28;20185;-72
2023/12/01 00:40:23;;;;;;;26.83;21.20;;;;;;;3.17;79.68;94519.00;5002892;28;20250;-72
2023/12/01 00:42:49;;;;;;;31.00;22.83;;;;;;;3.36;78.82;94502.78;4999770;28;20313;-72
2023/12/01 00:45:15;;;;;;;28.40;22.13;;;;;;;3.49;78.10;94534.66;4999192;28;20246;-70
2023/12/01 00:47:41;;;;;;;26.90;20.53;;;;;;;3.45;77.91;94512.47;5006220;28;20233;-72
2023/12/01 00:50:07;;;;;;;28.63;21.43;;;;;;;3.39;78.51;94523.31;5005745;28;20187;-72
2023/12/01 00:52:33;;;;;;;30.43;22.10;;;;;;;3.30;78.63;94553.47;4994678;28;20230;-72
2023/12/01 00:54:58;;;;;;;28.37;21.70;;;;;;;3.39;78.11;94514.72;4987291;28;20223;-71
2023/12/01 00:57:23;;;;;;;26.80;21.43;;;;;;;3.37;78.22;94561.63;4984078;28;20227;-72
2023/12/01 00:59:49;;;;;;;27.50;20.57;;;;;;;3.28;78.84;94495.59;4988733;28;20250;-72
2023/12/01 01:02:14;;;;;;;29.00;21.80;;;;;;;3.37;78.50;94547.78;4998047;28;20240;-70
2023/12/01 01:04:40;;;;;;;27.23;22.33;;;;;;;3.28;78.84;94518.97;4997629;28;20218;-70
2023/12/01 01:07:05;;;;;;;28.43;21.30;;;;;;;3.36;78.79;94531.38;5003076;28;20223;-72
2023/12/01 01:09:30;;;;;;;28.03;20.43;;;;;;;3.46;78.38;94511.50;5000147;28;20258;-71
2023/12/01 01:11:56;;;;;;;27.00;20.80;;;;;;;3.54;77.96;94493.53;4996162;28;20230;-72
2023/12/01 01:14:21;;;;;;;24.83;19.73;;;;;;;3.58;77.76;94514.09;5005071;28;20341;-71
2023/12/01 01:16:47;;;;;;;26.90;20.57;;;;;;;3.59;77.59;94487.16;5001866;28;20240;-72
2023/12/01 01:19:12;;;;;;;27.67;21.17;;;;;;;3.66;77.78;94515.16;4998912;28;20374;-72
2023/12/01 01:21:37;;;;;;;28.40;21.00;;;;;;;3.54;77.29;94503.94;5003742;28;20285;-72
2023/12/01 01:24:03;;;;;;;29.83;21.03;;;;;;;3.37;78.35;94517.44;5001608;28;20231;-71
2023/12/01 01:26:29;;;;;;;25.30;20.13;;;;;;;3.47;78.18;94518.34;4997304;28;20238;-72
2023/12/01 01:28:55;;;;;;;26.80;20.83;;;;;;;3.51;78.06;94503.34;5000623;28;20197;-72
2023/12/01 01:31:20;;;;;;;28.07;21.20;;;;;;;3.51;77.83;94496.38;4999577;28;20231;-71
2023/12/01 01:33:45;;;;;;;27.20;19.97;;;;;;;3.48;78.11;94504.44;4999759;28;20223;-71
2023/12/01 01:36:11;;;;;;;27.43;20.77;;;;;;;3.46;78.16;94487.28;4999487;28;20227;-72
2023/12/01 01:38:37;;;;;;;25.93;20.70;;;;;;;3.39;78.62;94505.13;4999954;28;20187;-72
2023/12/01 01:41:03;;;;;;;26.67;19.70;;;;;;;3.42;78.34;94475.47;5001775;28;20195;-72
2023/12/01 01:43:29;;;;;;;26.43;21.57;;;;;;;3.29;78.63;94506.81;5006738;28;20222;-72
2023/12/01 01:46:09;;;;;;;26.30;20.30;;;;;;;3.47;78.66;94489.75;5002238;28;20235;-72
2023/12/01 01:48:34;;;;;;;29.50;20.90;;;;;;;3.47;78.17;94487.16;4997799;28;20226;-71
2023/12/01 01:51:02;;;;;;;28.17;21.37;;;;;;;3.26;79.51;94475.88;4995090;28;20234;-72
2023/12/01 01:53:28;;;;;;;25.93;21.37;;;;;;;3.33;78.95;94474.44;4997625;28;20242;-71
2023/12/01 01:55:57;;;;;;;26.00;21.17;;;;;;;3.42;78.62;94478.94;5007616;28;20278;-71
2023/12/01 01:58:23;;;;;;;28.37;22.27;;;;;;;3.43;78.45;94480.56;5000155;28;20247;-71
2023/12/01 02:00:49;;;;;;;27.30;21.03;;;;;;;3.33;78.35;94471.84;5001493;28;20223;-71
2023/12/01 02:03:19;;;;;;;27.27;20.20;;;;;;;3.42;78.28;94510.13;4998780;28;20230;-71
2023/12/01 02:05:48;;;;;;;28.03;22.43;;;;;;;3.11;78.77;94479.69;5008204;28;20230;-72
2023/12/01 02:08:27;;;;;;;26.67;20.00;;;;;;;3.28;78.38;94476.56;5008795;28;20195;-73
2023/12/01 02:10:57;;;;;;;29.53;21.53;;;;;;;3.12;78.88;94465.75;5007129;28;20214;-73
2023/12/01 02:13:23;;;;;;;26.87;22.50;;;;;;;3.09;79.00;94488.41;5004322;28;20313;-72
2023/12/01 02:15:50;;;;;;;27.83;21.17;;;;;;;3.16;79.53;94468.00;5007739;28;20295;-72
2023/12/01 02:18:19;;;;;;;26.07;20.80;;;;;;;2.77;80.14;94471.91;5001331;28;20269;-71
2023/12/01 02:20:45;;;;;;;31.40;24.03;;;;;;;2.81;81.31;94489.72;5001576;28;20223;-70
2023/12/01 02:23:10;;;;;;;29.03;22.47;;;;;;;2.70;81.79;94458.56;5003892;28;20195;-72
2023/12/01 02:25:36;;;;;;;30.17;24.23;;;;;;;2.92;80.99;94478.50;5001154;28;20233;-72
2023/12/01 02:28:01;;;;;;;27.27;22.17;;;;;;;3.05;80.35;94458.44;4996677;28;20640;-72
2023/12/01 02:30:27;;;;;;;27.43;22.63;;;;;;;3.02;80.78;94465.63;5004103;28;20219;-72
2023/12/01 02:32:52;;;;;;;26.97;23.17;;;;;;;3.15;80.22;94468.09;5002658;28;20297;-72
2023/12/01 02:35:18;;;;;;;26.50;22.13;;;;;;;3.28;79.95;94456.59;5004149;28;20190;-72
2023/12/01 02:37:43;;;;;;;26.30;19.17;;;;;;;3.30;79.80;94466.91;5001105;28;20226;-72
2023/12/01 02:40:15;;;;;;;26.30;22.10;;;;;;;3.33;80.00;94515.19;4997529;28;20343;-73
2023/12/01 02:42:48;;;;;;;23.93;18.77;;;;;;;3.34;79.75;94455.28;4987012;28;20219;-73
2023/12/01 02:45:14;;;;;;;25.30;19.03;;;;;;;3.48;79.58;94467.22;4999214;28;20270;-72
2023/12/01 02:47:39;;;;;;;26.20;18.70;;;;;;;3.57;79.29;94489.03;5003169;28;20253;-72
2023/12/01 02:50:09;;;;;;;21.83;17.77;;;;;;;3.65;78.77;94465.84;4999667;28;20186;-72
2023/12/01 02:52:38;;;;;;;22.60;17.83;;;;;;;3.64;79.10;94440.81;5005742;28;20226;-73
2023/12/01 02:55:04;;;;;;;22.60;17.20;;;;;;;3.70;78.88;94482.72;5005779;28;20243;-72
2023/12/01 02:57:29;;;;;;;19.47;15.60;;;;;;;3.89;78.25;94450.03;5000283;28;20234;-71
2023/12/01 02:59:55;;;;;;;20.60;16.27;;;;;;;3.78;78.29;94458.72;4998480;28;20231;-71
2023/12/01 03:02:21;;;;;;;19.30;14.37;;;;;;;3.87;77.90;94472.75;5002147;28;20238;-71
2023/12/01 03:04:47;;;;;;;19.73;14.57;;;;;;;3.96;78.12;94426.00;5000364;28;20336;-71
2023/12/01 03:07:12;;;;;;;18.90;14.23;;;;;;;3.86;78.64;94468.50;5003943;28;20306;-71
2023/12/01 03:09:37;;;;;;;19.40;16.23;;;;;;;3.94;78.42;94453.09;5007907;28;20242;-71
2023/12/01 03:12:04;;;;;;;21.17;15.97;;;;;;;3.73;78.27;94485.09;5003622;28;20237;-71
2023/12/01 03:14:29;;;;;;;21.17;15.63;;;;;;;3.68;78.98;94455.22;5003850;28;20211;-71
2023/12/01 03:16:56;;;;;;;20.57;14.43;;;;;;;3.98;78.43;94473.53;5007729;28;20222;-71
2023/12/01 03:19:22;;;;;;;18.43;14.73;;;;;;;3.94;78.27;94479.94;5004340;28;20321;-71
2023/12/01 03:21:48;;;;;;;17.63;14.37;;;;;;;4.00;78.35;94455.19;4999250;28;20309;-71
2023/12/01 03:24:13;;;;;;;16.17;13.47;;;;;;;4.03;77.88;94488.75;5004379;28;20227;-72
2023/12/01 03:26:39;;;;;;;15.87;13.30;;;;;;;4.10;77.50;94471.69;4998386;28;20204;-72
2023/12/01 03:29:04;;;;;;;17.10;12.87;;;;;;;4.21;77.13;94470.81;5003352;28;20195;-72
2023/12/01 03:31:30;;;;;;;16.47;12.97;;;;;;;4.31;76.76;94447.47;4998725;28;20249;-73
2023/12/01 03:33:55;;;;;;;15.47;12.03;;;;;;;4.33;76.54;94454.19;5003299;28;20254;-72
2023/12/01 03:36:21;;;;;;;13.63;11.77;;;;;;;4.34;77.19;94460.22;5003823;28;20306;-72
2023/12/01 03:38:47;;;;;;;14.93;12.17;;;;;;;4.42;76.92;94416.16;5004600;28;20256;-72
2023/12/01 03:41:13;;;;;;;12.53;10.17;;;;;;;4.42;76.74;94478.63;5000968;28;20257;-73
2023/12/01 03:43:38;;;;;;;12.97;10.87;;;;;;;4.13;78.59;94455.84;5003380;28;20223;-72
2023/12/01 03:46:05;;;;;;;13.90;10.57;;;;;;;4.41;77.84;94417.94;5005430;28;20261;-72
2023/12/01 03:48:33;;;;;;;13.13;10.27;;;;;;;4.46;77.35;94427.94;5000609;28;20246;-71
2023/12/01 03:50:59;;;;;;;12.77;9.27;;;;;;;4.36;77.87;94463.53;5003621;28;20301;-72
2023/12/01 03:53:25;;;;;;;14.30;10.30;;;;;;;4.38;78.07;94446.84;4999722;28;20195;-71
2023/12/01 03:55:52;;;;;;;10.90;9.43;;;;;;;4.56;77.34;94464.44;5004854;28;20191;-72
2023/12/01 03:58:17;;;;;;;11.27;9.03;;;;;;;4.61;77.29;94478.72;5007912;28;20239;-72
2023/12/01 04:00:43;;;;;;;12.63;8.90;;;;;;;4.72;76.64;94449.19;4995032;28;20262;-73
2023/12/01 04:03:08;;;;;;;10.07;8.70;;;;;;;4.76;76.77;94447.16;5006095;28;20250;-73
2023/12/01 04:05:34;;;;;;;11.43;9.37;;;;;;;4.90;76.24;94430.34;5001906;28;20249;-70
2023/12/01 04:07:59;;;;;;;10.90;8.43;;;;;;;4.84;76.17;94468.16;5002523;28;20194;-72
2023/12/01 04:10:25;;;;;;;9.97;8.13;;;;;;;4.88;76.21;94474.75;4994076;28;20310;-73
2023/12/01 04:12:51;;;;;;;8.60;7.37;;;;;;;4.93;76.00;94424.88;5002180;28;20219;-72
2023/12/01 04:15:18;;;;;;;9.07;7.87;;;;;;;4.92;75.75;94464.88;5007256;28;20226;-71
2023/12/01 04:17:45;;;;;;;10.60;8.17;;;;;;;4.97;75.94;94427.09;5000899;28;20361;-71
2023/12/01 04:20:25;;;;;;;8.37;7.47;;;;;;;5.05;75.67;94455.06;5004658;28;20198;-72
2023/12/01 04:22:53;;;;;;;8.77;7.37;;;;;;;5.01;75.65;94438.88;5004658;28;20227;-72
2023/12/01 04:25:19;;;;;;;10.37;7.97;;;;;;;5.05;75.39;94421.19;5007261;28;20227;-73
2023/12/01 04:27:46;;;;;;;11.63;8.40;;;;;;;4.94;76.10;94444.75;5004531;28;20226;-73
2023/12/01 04:30:16;;;;;;;8.73;7.80;;;;;;;5.08;75.98;94424.38;5007218;28;20231;-72
2023/12/01 04:32:46;;;;;;;9.90;8.00;;;;;;;5.07;75.75;94460.97;5001892;28;20222;-72
2023/12/01 04:35:14;;;;;;;10.20;7.90;;;;;;;4.77;77.16;94436.59;5003989;28;20191;-72
2023/12/01 04:37:41;;;;;;;9.43;7.43;;;;;;;4.94;76.91;94455.16;4997779;28;20230;-74
2023/12/01 04:40:14;;;;;;;10.33;7.13;;;;;;;5.00;76.47;94389.53;5006056;28;20246;-74
2023/12/01 04:42:41;;;;;;;9.83;7.70;;;;;;;4.76;77.11;94492.25;5000340;28;20223;-74
2023/12/01 04:45:11;;;;;;;10.47;7.80;;;;;;;4.74;77.82;94360.50;5004395;28;20242;-74
2023/12/01 04:47:40;;;;;;;10.60;7.37;;;;;;;4.85;77.33;94448.97;5002496;28;20261;-71
2023/12/01 04:50:13;;;;;;;7.63;6.30;;;;;;;4.79;78.22;94439.09;4999033;28;20199;-74
2023/12/01 04:52:48;;;;;;;9.00;6.70;;;;;;;4.95;77.78;94399.50;5004757;28;20229;-73
2023/12/01 04:55:16;;;;;;;7.70;6.20;;;;;;;5.09;76.88;94461.69;5007576;28;20284;-72
2023/12/01 04:57:42;;;;;;;8.47;6.30;;;;;;;5.07;77.39;94412.28;5006144;28;20234;-73
2023/12/01 05:00:22;;;;;;;10.97;6.03;;;;;;;5.10;77.14;94411.19;5002818;28;20243;-72
2023/12/01 05:02:51;;;;;;;7.87;6.80;;;;;;;5.21;76.92;94445.00;4999245;28;20222;-74
2023/12/01 05:05:24;;;;;;;7.57;6.67;;;;;;;5.29;76.65;94395.63;5001297;28;20270;-74
2023/12/01 05:07:51;;;;;;;10.97;7.00;;;;;;;5.28;76.37;94440.88;4997777;28;20222;-74
2023/12/01 05:10:22;;;;;;;7.83;6.27;;;;;;;5.47;76.08;94371.47;5002924;28;20222;-73
2023/12/01 05:12:54;;;;;;;8.60;5.67;;;;;;;5.02;77.07;94440.50;4999699;28;20211;-73
2023/12/01 05:15:22;;;;;;;8.03;6.00;;;;;;;5.05;77.60;94416.81;4998760;28;20289;-72
2023/12/01 05:17:48;;;;;;;8.27;6.00;;;;;;;5.25;77.29;94461.19;5003329;28;20225;-73
2023/12/01 05:20:15;;;;;;;7.27;5.70;;;;;;;5.15;77.45;94434.25;5001896;28;20207;-73
2023/12/01 05:22:51;;;;;;;8.17;6.03;;;;;;;5.28;77.23;94433.06;4999213;28;20215;-73
2023/12/01 05:25:18;;;;;;;7.40;6.00;;;;;;;5.19;77.67;94443.47;5005450;28;20302;-74
2023/12/01 05:27:49;;;;;;;8.37;6.30;;;;;;;5.34;77.28;94433.47;5000796;28;20222;-73
2023/12/01 05:30:15;;;;;;;9.57;6.40;;;;;;;5.41;76.64;94405.91;4996330;28;20222;-73
2023/12/01 05:32:43;;;;;;;8.93;6.47;;;;;;;5.39;76.58;94439.94;5001898;28;20230;-70
2023/12/01 05:35:12;;;;;;;7.53;6.20;;;;;;;5.47;76.35;94414.00;5006739;28;20194;-70
2023/12/01 05:37:46;;;;;;;8.93;7.00;;;;;;;5.50;76.33;94418.94;5006288;28;20219;-69
2023/12/01 05:40:14;;;;;;;10.23;7.20;;;;;;;5.48;76.49;94409.63;5009413;28;20217;-71
2023/12/01 05:42:41;;;;;;;7.23;6.30;;;;;;;5.49;76.21;94448.59;5006144;28;20223;-71
2023/12/01 05:45:11;;;;;;;9.03;6.73;;;;;;;5.26;77.28;94457.59;5004543;28;20251;-70
2023/12/01 05:47:43;;;;;;;9.27;7.10;;;;;;;5.41;77.02;94390.28;5003057;28;20211;-70
2023/12/01 05:50:29;;;;;;;8.27;6.93;;;;;;;5.09;78.32;94419.97;5006108;28;20191;-69
2023/12/01 05:52:59;;;;;;;8.47;7.30;;;;;;;5.26;77.73;94445.38;5004609;28;20329;-75
2023/12/01 05:55:28;;;;;;;7.77;6.77;;;;;;;5.17;77.92;94440.97;5002995;28;20317;-71
2023/12/01 05:57:56;;;;;;;8.10;6.83;;;;;;;5.35;77.69;94429.94;5002473;28;20278;-71
2023/12/01 06:00:23;;;;;;;8.57;6.60;;;;;;;5.45;77.45;94446.38;5004106;28;20230;-69
2023/12/01 06:02:51;;;;;;;9.33;6.87;;;;;;;5.56;76.83;94416.75;4999440;28;20364;-71
2023/12/01 06:05:18;;;;;;;10.97;7.83;;;;;;;5.34;77.41;94455.16;5007119;28;20193;-71
2023/12/01 06:07:49;;;;;;;11.63;7.87;;;;;;;5.45;77.81;94433.34;5006045;28;20238;-71
2023/12/01 06:10:15;;;;;;;10.17;7.23;;;;;;;5.54;76.81;94414.31;5007887;28;20221;-70
2023/12/01 06:12:41;;;;;;;12.30;7.57;;;;;;;5.71;76.48;94439.69;5004748;28;20226;-70
2023/12/01 06:15:11;;;;;;;10.67;6.83;;;;;;;5.66;76.54;94426.25;5004495;28;20313;-72
2023/12/01 06:17:37;;;;;;;7.93;6.27;;;;;;;5.73;76.52;94419.53;5004664;28;20654;-71
2023/12/01 06:20:04;;;;;;;9.67;7.17;;;;;;;5.78;76.32;94436.56;5001813;28;20265;-70
2023/12/01 06:22:29;;;;;;;9.20;7.40;;;;;;;5.71;76.34;94431.88;5007237;28;20226;-70
2023/12/01 06:24:55;;;;;;;11.70;7.73;;;;;;;5.76;76.45;94408.00;5005150;28;20297;-70
2023/12/01 06:27:20;;;;;;;11.70;7.43;;;;;;;5.88;76.45;94439.97;5004669;28;20254;-70
2023/12/01 06:29:46;;;;;;;8.87;7.27;;;;;;;5.80;76.43;94443.28;5000556;28;20246;-72
2023/12/01 06:32:13;;;;;;;10.43;7.60;;;;;;;5.78;76.26;94447.00;5011219;28;20201;-71
2023/12/01 06:34:38;;;;;;;12.43;7.60;;;;;;;5.92;75.89;94439.56;5000917;28;20245;-70
2023/12/01 06:37:04;;;;;;;10.30;8.37;;;;;;;5.79;76.82;94432.97;5003190;28;20216;-72
2023/12/01 06:39:29;;;;;;;10.27;8.07;;;;;;;5.90;76.44;94438.88;5001479;28;20230;-70
2023/12/01 06:41:54;;;;;;;11.63;8.43;;;;;;;5.92;76.02;94436.97;5000465;28;20230;-72
2023/12/01 06:44:21;;;;;;;12.97;8.00;;;;;;;5.83;76.09;94429.16;4999051;28;20273;-70
2023/12/01 06:46:46;;;;;;;12.63;8.07;;;;;;;5.78;76.71;94454.81;5008542;28;20235;-69
2023/12/01 06:49:12;;;;;;;12.03;8.20;;;;;;;5.87;76.38;94438.34;5006187;28;20628;-72
2023/12/01 06:51:38;;;;;;;12.23;8.20;;;;;;;5.92;76.30;94425.72;5002354;28;20219;-70
2023/12/01 06:54:03;;;;;;;10.67;8.80;;;;;;;6.01;76.39;94422.28;5002804;28;20317;-70
2023/12/01 06:56:29;;;;;;;11.97;8.30;;;;;;;6.15;75.87;94442.75;4984207;28;20219;-70
2023/12/01 06:58:55;;;;;;;9.60;8.57;;;;;;;6.21;75.57;94425.72;5006781;28;20183;-70
2023/12/01 07:01:20;;;;;;;17.93;8.63;;;;;;;6.21;75.48;94459.66;5001663;28;20223;-69
2023/12/01 07:03:46;;;;;;;13.23;8.77;;;;;;;6.08;75.86;94439.06;5000263;28;20321;-69
2023/12/01 07:06:12;;;;;;;14.77;9.50;;;;;;;6.25;75.68;94460.19;5000340;28;20234;-69
2023/12/01 07:08:38;;;;;;;13.70;8.50;;;;;;;6.29;75.64;94451.13;5003764;28;20606;-72
2023/12/01 07:11:04;;;;;;;9.67;8.63;;;;;;;6.27;75.47;94466.91;5003934;28;20225;-72
2023/12/01 07:13:30;;;;;;;10.80;8.73;;;;;;;6.30;75.74;94455.38;5001631;28;20251;-71
2023/12/01 07:15:56;;;;;;;14.37;9.37;;;;;;;6.27;75.74;94442.59;5001992;28;20233;-71
2023/12/01 07:18:23;;;;;;;13.30;8.13;;;;;;;6.37;75.31;94440.81;4998910;28;20258;-70
2023/12/01 07:20:48;;;;;;;11.73;9.80;;;;;;;6.41;75.49;94431.72;5008329;28;20257;-70
2023/12/01 07:23:14;;;;;;;12.30;9.73;;;;;;;6.57;74.89;94447.63;5002717;28;20188;-73
2023/12/01 07:25:40;;;;;;;11.63;9.87;;;;;;;6.60;75.11;94439.53;5000888;28;20219;-72
2023/12/01 07:28:08;;;;;;;15.97;9.00;;;;;;;6.65;74.86;94418.19;5005960;28;20226;-73
2023/12/01 07:30:33;;;;;;;10.80;9.47;;;;;;;6.48;75.28;94465.94;5003637;28;20238;-71
2023/12/01 07:33:03;;;;;;;13.97;10.53;;;;;;;6.53;75.26;94430.59;4999460;28;20227;-71
2023/12/01 07:35:29;;;;;;;12.83;9.57;;;;;;;6.55;75.17;94423.44;5001207;28;20214;-71
2023/12/01 07:37:54;;;;;;;10.90;8.60;;;;;;;6.65;74.78;94430.41;5006384;28;20229;-73
2023/12/01 07:40:21;;;;;;;10.53;8.47;;;;;;;6.71;74.33;94442.91;4999134;28;20231;-74
2023/12/01 07:42:47;;;;;;;14.47;9.63;;;;;;;6.52;74.26;94442.03;5009123;28;20307;-72
2023/12/01 07:45:19;;;;;;;13.53;10.50;;;;;;;6.73;73.94;94474.94;5003220;28;20239;-72
2023/12/01 07:47:45;;;;;;;13.60;10.47;;;;;;;6.74;73.65;94468.78;5007097;28;20310;-70
2023/12/01 07:50:10;;;;;;;12.27;9.63;;;;;;;6.77;73.25;94455.44;5003450;28;20286;-72
2023/12/01 07:52:36;;;;;;;12.03;9.63;;;;;;;6.85;73.47;94448.50;5007343;28;20233;-71
2023/12/01 07:55:03;;;;;;;15.47;11.60;;;;;;;6.80;73.42;94444.69;5002843;28;20231;-72
2023/12/01 07:57:28;;;;;;;13.77;11.53;;;;;;;6.90;73.17;94455.13;5006905;28;20219;-72
2023/12/01 07:59:54;;;;;;;14.93;11.50;;;;;;;6.94;73.18;94443.41;5007311;28;20223;-70
2023/12/01 08:02:19;;;;;;;18.37;13.03;;;;;;;6.89;72.81;94422.91;5002692;28;20250;-71
2023/12/01 08:04:44;;;;;;;17.10;12.10;;;;;;;6.39;73.51;94468.44;5007196;28;20226;-71
2023/12/01 08:07:10;;;;;;;13.23;10.10;;;;;;;6.53;73.75;94467.16;5002475;28;20227;-71
2023/12/01 08:09:36;;;;;;;14.97;11.30;;;;;;;6.67;73.42;94449.41;5005259;28;20227;-73
2023/12/01 08:12:05;;;;;;;12.17;9.70;;;;;;;6.88;73.18;94493.63;5002629;28;20313;-74
2023/12/01 08:14:31;;;;;;;11.13;9.20;;;;;;;6.83;72.96;94466.13;5000821;28;20194;-72
2023/12/01 08:16:56;;;;;;;11.03;8.97;;;;;;;6.99;72.76;94473.34;5001044;28;20184;-74
2023/12/01 08:19:22;;;;;;;12.00;9.37;;;;;;;7.04;72.55;94478.97;5005033;28;20273;-71
2023/12/01 08:21:47;;;;;;;11.60;8.97;;;;;;;7.09;72.91;94470.72;4998780;28;20310;-73
2023/12/01 08:24:13;;;;;;;11.33;9.73;;;;;;;7.16;72.39;94452.66;5006707;28;20231;-74
2023/12/01 08:26:39;;;;;;;10.17;8.73;;;;;;;7.23;72.37;94462.38;5000054;28;20211;-74
2023/12/01 08:29:05;;;;;;;9.90;8.40;;;;;;;7.36;72.23;94453.38;5003394;28;20195;-73
2023/12/01 08:31:32;;;;;;;11.87;9.30;;;;;;;7.05;72.48;94490.25;5006693;28;20252;-79
2023/12/01 08:33:58;;;;;;;12.80;9.90;;;;;;;6.92;73.09;94484.53;5004793;28;20235;-77
2023/12/01 08:36:24;;;;;;;9.27;7.67;;;;;;;7.26;72.67;94492.66;5002687;28;20223;-78
2023/12/01 08:38:50;;;;;;;9.13;6.77;;;;;;;7.34;72.47;94482.28;5008692;28;20226;-78
2023/12/01 08:41:15;;;;;;;8.73;6.83;;;;;;;7.62;71.99;94464.00;5001011;28;20210;-80
2023/12/01 08:43:41;;;;;;;12.10;9.73;;;;;;;7.73;71.39;94471.63;5008368;28;20309;-81
2023/12/01 08:46:07;;;;;;;9.10;6.30;;;;;;;7.77;71.44;94469.53;5008553;28;20242;-81
2023/12/01 08:48:32;;;;;;;11.37;9.20;;;;;;;7.90;71.10;94444.63;5000239;28;20238;-82
2023/12/01 08:50:58;;;;;;;7.40;6.70;;;;;;;8.04;70.94;94439.84;5003684;28;20235;-80
2023/12/01 08:53:24;;;;;;;7.20;6.03;;;;;;;8.13;70.44;94459.91;5007269;28;20210;-80
2023/12/01 08:55:50;;;;;;;7.00;5.30;;;;;;;8.24;69.73;94430.84;4999978;28;20202;-81
2023/12/01 08:58:17;;;;;;;7.73;5.53;;;;;;;8.20;70.15;94470.59;5009425;28;20230;-74
2023/12/01 09:00:43;;;;;;;8.23;6.13;;;;;;;8.24;70.01;94428.22;5004382;28;20298;-74
2023/12/01 09:03:08;;;;;;;9.83;5.80;;;;;;;8.41;69.76;94446.72;5004882;28;20290;-75
2023/12/01 09:05:34;;;;;;;7.53;5.83;;;;;;;8.46;69.52;94418.28;5006925;28;20281;-77
2023/12/01 09:08:04;;;;;;;7.83;6.20;;;;;;;8.57;69.17;94428.50;5006266;28;20191;-77
2023/12/01 09:10:30;;;;;;;10.17;6.57;;;;;;;8.56;69.00;94391.00;5007822;28;20246;-73
2023/12/01 09:12:55;;;;;;;6.87;5.60;;;;;;;8.67;69.15;94426.59;5004037;28;20261;-77
2023/12/01 09:15:21;;;;;;;6.53;5.37;;;;;;;8.75;68.67;94397.00;5001715;28;20313;-72
2023/12/01 09:17:46;;;;;;;5.57;4.97;;;;;;;8.72;69.70;94395.50;5007401;28;20215;-77
2023/12/01 09:20:12;;;;;;;7.57;5.83;;;;;;;8.81;69.46;94396.34;5008778;28;20290;-78
2023/12/01 09:22:37;;;;;;;7.97;5.73;;;;;;;8.91;68.82;94398.88;5004281;28;20233;-74
2023/12/01 09:25:04;;;;;;;8.73;6.67;;;;;;;8.89;68.90;94434.91;4988455;28;20238;-74
2023/12/01 09:27:29;;;;;;;7.93;6.43;;;;;;;8.99;68.53;94404.16;4990149;28;20306;-74
2023/12/01 09:29:55;;;;;;;8.77;6.40;;;;;;;9.01;68.23;94399.59;5003874;28;20306;-75
2023/12/01 09:32:20;;;;;;;8.93;6.57;;;;;;;9.08;68.37;94418.94;5012625;28;20194;-75
2023/12/01 09:34:46;;;;;;;10.70;7.20;;;;;;;9.10;68.18;94411.75;5005891;28;20253;-74
2023/12/01 09:37:12;;;;;;;9.27;6.20;;;;;;;9.11;68.42;94421.25;5010069;28;20223;-76
2023/12/01 09:39:38;;;;;;;13.87;8.30;;;;;;;8.76;69.41;94448.44;5004286;28;20253;-77
2023/12/01 09:42:09;;;;;;;12.10;8.53;;;;;;;8.91;69.92;94433.78;5008639;28;20534;-79
2023/12/01 09:44:35;;;;;;;9.10;7.33;;;;;;;9.01;69.02;94421.38;5001777;28;20191;-78
2023/12/01 09:47:03;;;;;;;8.77;7.87;;;;;;;9.01;68.76;94455.47;5009002;28;20263;-74
2023/12/01 09:49:33;;;;;;;11.93;7.77;;;;;;;9.15;68.60;94440.94;5009164;28;20285;-76
2023/12/01 09:51:59;;;;;;;11.20;8.20;;;;;;;9.11;68.27;94430.91;5002415;28;20226;-77
2023/12/01 09:54:26;;;;;;;10.87;7.53;;;;;;;9.17;68.71;94452.09;4994286;28;20225;-79
2023/12/01 09:56:51;;;;;;;10.93;7.00;;;;;;;9.27;68.49;94415.25;5001545;28;20223;-78
2023/12/01 09:59:18;;;;;;;12.40;7.13;;;;;;;9.36;68.55;94431.84;5009875;28;20202;-77
2023/12/01 10:01:44;;;;;;;8.97;7.13;;;;;;;9.56;68.52;94438.47;5007035;28;20219;-79
2023/12/01 10:04:10;;;;;;;11.10;7.07;;;;;;;9.79;68.23;94424.75;5005459;28;20231;-79
2023/12/01 10:06:37;;;;;;;7.07;5.73;;;;;;;10.00;67.47;94404.09;5013658;28;20245;-78
2023/12/01 10:09:03;;;;;;;9.17;6.40;;;;;;;10.23;67.19;94417.41;5005172;28;20277;-79
2023/12/01 10:11:29;;;;;;;8.90;6.10;;;;;;;10.29;66.70;94439.59;5011063;28;20536;-79
2023/12/01 10:13:54;;;;;;;8.30;6.47;;;;;;;10.38;66.42;94438.63;5010232;28;20198;-78
2023/12/01 10:16:21;;;;;;;8.50;5.87;;;;;;;10.63;66.19;94425.47;5007385;28;20215;-78
2023/12/01 10:18:55;;;;;;;8.37;6.50;;;;;;;10.93;65.28;94416.88;5009025;28;20207;-79
2023/12/01 10:21:21;;;;;;;8.50;5.70;;;;;;;11.21;64.77;94430.41;5013449;28;20294;-79
2023/12/01 10:23:46;;;;;;;6.23;5.03;;;;;;;11.43;63.58;94370.09;5008858;28;20329;-81
2023/12/01 10:26:13;;;;;;;10.93;6.35;;;;;;;11.65;63.48;94400.09;5008962;28;20203;-79
2023/12/01 10:28:40;;;;;;;6.85;4.72;;;;;;;12.06;62.36;94357.72;5006309;28;20226;-79
2023/12/01 10:31:06;;;;;;;8.03;4.90;;;;;;;12.45;61.76;94325.06;5003945;28;20334;-79
2023/12/01 10:33:34;;;;;;;6.37;4.93;;;;;;;12.67;60.38;94384.88;5008711;28;20303;-79
2023/12/01 10:36:04;;;;;;;5.30;4.80;;;;;;;12.96;58.89;94376.16;5009601;28;20352;-79
2023/12/01 10:38:33;;;;;;;7.80;4.72;;;;;;;13.20;59.41;94387.41;5011998;28;20192;-79
2023/12/01 10:41:00;;;;;;;6.47;4.72;;;;;;;13.56;57.75;94370.84;5008253;28;20191;-80
2023/12/01 10:43:29;;;;;;;5.57;4.43;;;;;;;13.77;57.66;94370.06;5012373;28;20245;-80
2023/12/01 10:46:00;;;;;;;5.93;4.82;;;;;;;13.81;58.04;94350.16;5003635;28;20319;-78
2023/12/01 10:48:27;;;;;;;6.88;5.60;;;;;;;13.99;57.56;94366.41;5002028;28;20731;-71
2023/12/01 10:50:54;;;;;;;6.10;4.97;;;;;;;14.10;57.48;94360.63;5008737;28;20229;-71
2023/12/01 10:53:24;;;;;;;6.40;5.22;;;;;;;14.21;56.35;94353.19;5004129;28;20211;-73
2023/12/01 10:55:51;;;;;;;7.63;6.43;;;;;;;14.12;56.16;94340.09;5003648;28;20238;-72
2023/12/01 10:58:25;;;;;;;6.70;6.10;;;;;;;14.01;57.42;94353.84;4991516;28;20224;-76
2023/12/01 11:00:57;;;;;;;11.65;6.30;;;;;;;14.17;57.28;94373.09;4979867;28;20255;-76
2023/12/01 11:03:24;;;;;;;6.85;6.10;;;;;;;14.12;56.91;94374.47;4983272;28;20223;-77
2023/12/01 11:05:55;;;;;;;8.88;7.10;;;;;;;14.04;56.24;94381.72;4979581;28;20226;-74
2023/12/01 11:08:44;;;;;;;11.52;7.40;;;;;;;13.96;57.26;94348.28;4984375;28;20569;-76
2023/12/01 11:11:31;;;;;;;11.23;8.38;;;;;;;14.30;56.51;94344.09;4980344;28;20282;-76
2023/12/01 11:14:07;;;;;;;10.30;7.95;;;;;;;14.30;56.63;94341.44;5007915;28;20298;-77
2023/12/01 11:16:33;;;;;;;10.98;9.70;;;;;;;14.16;57.61;94335.25;5001238;28;20211;-80
2023/12/01 11:18:59;;;;;;;14.43;12.43;;;;;;;14.27;56.87;94333.91;5020283;28;20586;-83
2023/12/01 11:21:24;;;;;;;13.45;12.15;;;;;;;14.20;55.65;94317.19;5010137;28;20227;-76
2023/12/01 11:23:50;;;;;;;11.52;10.27;;;;;;;14.19;57.34;94318.19;5003634;28;20278;-75
2023/12/01 11:26:16;;;;;;;12.82;11.52;;;;;;;14.19;58.56;94347.25;5001511;28;20494;-79
2023/12/01 11:31:18;;;;;;;13.30;10.32;;;;;;;14.10;58.18;94342.13;5007403;28;20216;-79
2023/12/01 11:33:51;;;;;;;12.90;10.40;;;;;;;14.07;59.26;94344.31;4992700;28;20211;-77